9G5 weather

Royalton Airport
Gasport, New York, United States

Public forecast

Using degrees Fahrenheit for public forecast. Weather courtesy of forecast.io.

Closest aviation weather report (METAR) to Royalton Airport

Closest report is Buffalo Niagara International Airport, 16.4 nm (30.4 km) SSW. Retrieved 2019/10/17 20:54 UTC (33 minutes ago):

KBUF 172054Z 29011G24KT 10SM BKN020 OVC028 07/04 A2969 RMK AO2 PK WND 30028/2014 SLP059 60000 T00720039 53021

Closest aviation forecast (TAF) to Royalton Airport

Closest forecast is Buffalo Niagara International Airport, 16.4 nm (30.4 km) SSW. Retrieved 2019/10/17 18:22 UTC (3 hours ago):

TAF KBUF 171720Z 1718/1818 31018G28KT P6SM -RA OVC015 FM172100 30015G25KT P6SM VCSH OVC015 FM180100 30014G21KT P6SM VCSH OVC015 FM180400 30013KT P6SM OVC020